Time;durP1;ratioP1;P1;durP2;ratioP2;P2;SDS_P1;SDS_P2;PMS_P1;PMS_P2;Temp;Humidity;BMP_temperature;BMP_pressure;BME280_temperature;BME280_humidity;BME280_pressure;Samples;Min_cycle;Max_cycle;Signal;HPM_P1;HPM_P2
2022/09/28 00:02:01;;;;;;;5.10;3.35;;;7.10;99.90;;;;;;5112380;28;20132;-82
2022/09/28 00:04:27;;;;;;;9.48;3.28;;;7.10;99.90;;;;;;5111998;28;20092;-78
2022/09/28 00:06:52;;;;;;;5.85;3.53;;;7.20;99.90;;;;;;5112630;28;20043;-77
2022/09/28 00:09:18;;;;;;;9.10;3.70;;;7.20;99.90;;;;;;5112629;28;20732;-81
2022/09/28 00:11:44;;;;;;;6.60;3.20;;;7.20;99.90;;;;;;5112669;28;20050;-78
2022/09/28 00:14:10;;;;;;;5.05;3.20;;;7.20;99.90;;;;;;5111926;28;20047;-81
2022/09/28 00:16:42;;;;;;;8.02;3.70;;;7.20;99.90;;;;;;5111912;28;20043;-79
2022/09/28 00:19:09;;;;;;;10.52;4.25;;;7.20;99.90;;;;;;5112198;28;20047;-79
2022/09/28 00:21:37;;;;;;;6.68;3.85;;;7.20;99.90;;;;;;5093842;28;20470;-80
2022/09/28 00:24:17;;;;;;;6.32;4.03;;;7.20;99.90;;;;;;5093942;28;20043;-80
2022/09/28 00:26:56;;;;;;;7.07;4.95;;;7.20;99.90;;;;;;5111925;28;20047;-80
2022/09/28 00:29:35;;;;;;;7.57;4.05;;;7.20;99.90;;;;;;5102475;28;20048;-82
2022/09/28 00:32:04;;;;;;;7.82;4.70;;;7.20;99.90;;;;;;5110577;28;20064;-79
2022/09/28 00:34:33;;;;;;;7.07;4.30;;;7.20;99.90;;;;;;5112061;28;20079;-81
2022/09/28 00:37:00;;;;;;;7.68;4.30;;;7.30;99.90;;;;;;5110433;28;20090;-80
2022/09/28 00:39:26;;;;;;;8.63;4.80;;;7.30;99.90;;;;;;5112067;28;20092;-77
2022/09/28 00:41:53;;;;;;;8.35;4.93;;;7.30;99.90;;;;;;5111841;28;20461;-81
2022/09/28 00:44:24;;;;;;;7.07;4.93;;;7.30;99.90;;;;;;5110579;28;20077;-79
2022/09/28 00:47:01;;;;;;;9.30;5.63;;;7.30;99.90;;;;;;5111202;28;20481;-79
2022/09/28 00:49:34;;;;;;;7.47;4.75;;;7.30;99.90;;;;;;5110140;28;20047;-82
2022/09/28 00:52:02;;;;;;;6.68;4.38;;;7.30;99.90;;;;;;5111716;28;20051;-79
2022/09/28 00:54:28;;;;;;;8.85;4.45;;;7.30;99.90;;;;;;5111786;28;20084;-82
2022/09/28 00:56:55;;;;;;;7.50;3.78;;;7.30;99.90;;;;;;5111503;28;20032;-78
2022/09/28 00:59:23;;;;;;;8.57;4.38;;;7.30;99.90;;;;;;5111099;28;20056;-82
2022/09/28 01:01:49;;;;;;;6.53;4.38;;;7.30;99.90;;;;;;5111181;28;20036;-78
2022/09/28 01:04:16;;;;;;;7.47;4.70;;;7.40;99.90;;;;;;5111659;28;20040;-81
2022/09/28 01:06:44;;;;;;;7.18;5.05;;;7.40;99.90;;;;;;5111671;28;20131;-78
2022/09/28 01:09:11;;;;;;;9.43;5.30;;;7.40;99.90;;;;;;5110108;28;20374;-79
2022/09/28 01:11:38;;;;;;;9.32;5.78;;;7.40;99.90;;;;;;5111259;28;20047;-83
2022/09/28 01:14:07;;;;;;;8.32;5.15;;;7.40;99.90;;;;;;5110664;28;20043;-79
2022/09/28 01:17:05;;;;;;;11.85;6.18;;;7.40;99.90;;;;;;5110511;28;20043;-82
2022/09/28 01:19:50;;;;;;;10.20;5.70;;;7.40;99.90;;;;;;5047850;28;20384;-80
2022/09/28 01:22:24;;;;;;;9.32;5.60;;;7.40;99.90;;;;;;5048050;28;20049;-81
2022/09/28 01:25:15;;;;;;;8.48;5.22;;;7.40;99.90;;;;;;5047838;28;20451;-82
2022/09/28 01:27:49;;;;;;;7.65;5.47;;;7.40;99.90;;;;;;5047516;28;20093;-79
2022/09/28 01:30:17;;;;;;;10.77;6.10;;;7.40;99.90;;;;;;5030745;28;20516;-78
2022/09/28 01:32:57;;;;;;;9.48;5.72;;;7.40;99.90;;;;;;5047391;28;20299;-77
2022/09/28 01:35:30;;;;;;;10.70;7.03;;;7.40;99.90;;;;;;5047623;28;20170;-79
2022/09/28 01:38:06;;;;;;;12.45;6.18;;;7.40;99.90;;;;;;5047122;28;20049;-79
2022/09/28 01:40:34;;;;;;;11.75;6.97;;;7.40;99.90;;;;;;5047842;28;20056;-79
2022/09/28 01:43:06;;;;;;;11.40;6.70;;;7.40;99.90;;;;;;5047796;28;20107;-78
2022/09/28 01:45:39;;;;;;;9.55;6.32;;;7.40;99.90;;;;;;5047572;28;20138;-80
2022/09/28 01:48:06;;;;;;;9.65;6.93;;;7.40;99.90;;;;;;5046762;28;20112;-79
2022/09/28 01:50:37;;;;;;;9.60;7.18;;;7.40;99.90;;;;;;5047281;28;20060;-80
2022/09/28 01:53:07;;;;;;;12.55;7.38;;;7.40;99.90;;;;;;5047452;28;20048;-83
2022/09/28 01:55:47;;;;;;;10.73;6.65;;;7.40;99.90;;;;;;5068483;28;20051;-78
2022/09/28 01:58:37;;;;;;;11.63;6.70;;;7.30;99.90;;;;;;5110356;28;20047;-78
2022/09/28 02:01:08;;;;;;;9.07;6.45;;;7.30;99.90;;;;;;5098395;28;20051;-79
2022/09/28 02:03:49;;;;;;;10.70;6.55;;;7.30;99.90;;;;;;5110213;28;20050;-81
2022/09/28 02:06:21;;;;;;;10.18;6.28;;;7.30;99.90;;;;;;5108759;28;20047;-81
2022/09/28 02:09:01;;;;;;;11.98;6.22;;;7.30;99.90;;;;;;5110474;28;20048;-78
2022/09/28 02:11:26;;;;;;;12.23;6.82;;;7.30;99.90;;;;;;5110502;28;20052;-78
2022/09/28 02:14:05;;;;;;;10.77;7.05;;;7.30;99.90;;;;;;5110168;28;20057;-80
2022/09/28 02:16:40;;;;;;;8.48;5.63;;;7.30;99.90;;;;;;5109858;28;20043;-84
2022/09/28 02:19:22;;;;;;;9.65;6.65;;;7.30;99.90;;;;;;5109896;28;20031;-79
2022/09/28 02:21:57;;;;;;;9.07;7.07;;;7.30;99.90;;;;;;5110289;28;20048;-80
2022/09/28 02:24:41;;;;;;;10.75;7.18;;;7.70;99.90;;;;;;5110532;28;20398;-78
2022/09/28 02:27:18;;;;;;;9.57;7.23;;;7.30;99.90;;;;;;5112711;28;20050;-78
2022/09/28 02:29:43;;;;;;;13.18;8.07;;;7.30;99.90;;;;;;5113921;28;20051;-77
2022/09/28 02:32:10;;;;;;;11.20;7.93;;;7.30;99.90;;;;;;5114402;28;20061;-77
2022/09/28 02:34:35;;;;;;;12.77;8.60;;;7.30;99.90;;;;;;5095703;28;20389;-83
2022/09/28 02:37:01;;;;;;;14.77;9.45;;;7.30;99.90;;;;;;5114291;28;20130;-80
2022/09/28 02:39:27;;;;;;;13.85;8.00;;;7.30;99.90;;;;;;5113878;28;20087;-77
2022/09/28 02:42:06;;;;;;;14.18;8.50;;;7.20;99.90;;;;;;5095892;28;20082;-83
2022/09/28 02:45:02;;;;;;;13.00;9.38;;;7.30;99.90;;;;;;5113549;28;20044;-78
2022/09/28 02:47:53;;;;;;;;;;;7.30;99.90;;;;;;5114340;28;20172;-82
2022/09/28 02:50:40;;;;;;;16.42;8.43;;;7.20;99.90;;;;;;5113071;28;20007;-80
2022/09/28 02:53:21;;;;;;;11.20;7.78;;;7.20;99.90;;;;;;5113516;28;20090;-78
2022/09/28 02:56:17;;;;;;;11.85;6.88;;;7.20;99.90;;;;;;5113530;28;20088;-78
2022/09/28 02:58:49;;;;;;;20.75;7.18;;;7.10;99.90;;;;;;5113831;28;20443;-78
2022/09/28 03:01:50;;;;;;;20.42;8.70;;;7.10;99.90;;;;;;5113256;28;20493;-79
2022/09/28 03:04:38;;;;;;;11.30;7.50;;;7.10;99.90;;;;;;5095633;28;20432;-77
2022/09/28 03:07:26;;;;;;;10.32;7.22;;;7.10;99.90;;;;;;5113092;28;20106;-84
2022/09/28 03:10:01;;;;;;;39.55;7.35;;;7.00;99.90;;;;;;5113467;28;20474;-77
2022/09/28 03:12:28;;;;;;;8.90;6.40;;;7.00;99.90;;;;;;5113589;28;20039;-78
2022/09/28 03:15:09;;;;;;;12.35;6.68;;;7.00;99.90;;;;;;5113192;28;20043;-77
2022/09/28 03:17:35;;;;;;;10.35;7.80;;;6.90;99.90;;;;;;5113017;28;20432;-78
2022/09/28 03:20:01;;;;;;;20.63;8.85;;;6.90;99.90;;;;;;5113181;28;20139;-78
2022/09/28 03:22:27;;;;;;;8.68;6.95;;;6.90;99.90;;;;;;5112981;28;20044;-81
2022/09/28 03:24:53;;;;;;;10.15;7.07;;;6.90;99.90;;;;;;5113645;28;20047;-78
2022/09/28 03:27:19;;;;;;;10.23;7.75;;;6.90;99.90;;;;;;5113091;28;20127;-78
2022/09/28 03:29:45;;;;;;;10.43;7.00;;;6.90;99.90;;;;;;5113206;28;20525;-77
2022/09/28 03:32:10;;;;;;;47.33;7.10;;;6.80;99.90;;;;;;5113248;28;20098;-77
2022/09/28 03:34:36;;;;;;;30.50;7.88;;;6.80;99.90;;;;;;5112856;28;20397;-80
2022/09/28 03:37:02;;;;;;;43.72;7.95;;;6.80;99.90;;;;;;5113012;28;20031;-78
2022/09/28 03:39:27;;;;;;;43.40;7.75;;;6.70;99.90;;;;;;5112526;28;20123;-76
2022/09/28 03:41:53;;;;;;;8.65;7.10;;;6.70;99.90;;;;;;5094380;28;20093;-83
2022/09/28 03:44:19;;;;;;;59.65;7.70;;;6.70;99.90;;;;;;5112432;28;20043;-77
2022/09/28 03:46:45;;;;;;;15.48;7.30;;;6.70;99.90;;;;;;5094399;28;20371;-78
2022/09/28 03:49:11;;;;;;;13.93;6.85;;;6.70;99.90;;;;;;5112737;28;20083;-79
2022/09/28 03:51:36;;;;;;;14.88;7.00;;;6.70;99.90;;;;;;5112888;28;20427;-76
2022/09/28 03:54:02;;;;;;;20.98;6.63;;;6.60;99.90;;;;;;5112533;28;20062;-81
2022/09/28 03:56:28;;;;;;;17.92;6.13;;;6.60;99.90;;;;;;5112435;28;20118;-79
2022/09/28 03:58:53;;;;;;;21.50;6.18;;;6.60;99.90;;;;;;5112411;28;20486;-84
2022/09/28 04:01:19;;;;;;;14.30;5.38;;;6.50;99.90;;;;;;5112293;28;20185;-77
2022/09/28 04:03:45;;;;;;;21.20;5.50;;;6.50;99.90;;;;;;5112546;28;20040;-79
2022/09/28 04:06:12;;;;;;;6.75;5.53;;;6.50;99.90;;;;;;5112114;28;20437;-82
2022/09/28 04:08:38;;;;;;;7.00;5.13;;;6.50;99.90;;;;;;5091848;28;20051;-78
2022/09/28 04:11:03;;;;;;;12.95;5.25;;;6.50;99.90;;;;;;5092146;28;20047;-77
2022/09/28 04:13:29;;;;;;;36.85;6.28;;;6.40;99.90;;;;;;5108560;28;20047;-78
2022/09/28 04:15:57;;;;;;;8.35;5.40;;;6.50;99.90;;;;;;5111964;28;20039;-79
2022/09/28 04:18:24;;;;;;;17.35;5.40;;;6.40;99.90;;;;;;5111979;28;20515;-78
2022/09/28 04:21:02;;;;;;;12.77;5.20;;;6.40;99.90;;;;;;5112218;28;20141;-81
2022/09/28 04:23:28;;;;;;;13.30;4.85;;;6.40;99.90;;;;;;5112712;28;20040;-80
2022/09/28 04:25:53;;;;;;;10.73;5.00;;;6.40;99.90;;;;;;5111873;28;20398;-78
2022/09/28 04:31:09;;;;;;;13.20;5.47;;;6.30;99.90;;;;;;5111954;28;20047;-84
2022/09/28 04:33:35;;;;;;;7.53;4.97;;;6.40;99.90;;;;;;5112059;28;20494;-85
2022/09/28 04:36:00;;;;;;;8.70;5.18;;;6.40;99.90;;;;;;5112248;28;20047;-78
2022/09/28 04:38:26;;;;;;;7.72;5.07;;;6.40;99.90;;;;;;5111713;28;20046;-81
2022/09/28 04:40:51;;;;;;;7.90;5.53;;;6.40;99.90;;;;;;5110028;28;20118;-77
2022/09/28 04:43:17;;;;;;;8.07;6.07;;;6.40;99.90;;;;;;5110210;28;20135;-84
2022/09/28 04:45:43;;;;;;;7.40;5.93;;;6.40;99.90;;;;;;5111502;28;20071;-78
2022/09/28 04:48:08;;;;;;;9.20;5.53;;;6.40;99.90;;;;;;5111545;28;20254;-85
2022/09/28 04:50:34;;;;;;;7.05;5.40;;;6.40;99.90;;;;;;5109552;28;20047;-81
2022/09/28 04:53:00;;;;;;;7.75;5.40;;;6.40;99.90;;;;;;5111829;28;20126;-79
2022/09/28 04:55:31;;;;;;;7.88;6.40;;;6.40;99.90;;;;;;5111249;28;20071;-82
2022/09/28 04:57:59;;;;;;;9.65;5.90;;;6.40;99.90;;;;;;5111343;28;20383;-81
2022/09/28 05:00:25;;;;;;;10.43;6.05;;;6.40;99.90;;;;;;5111055;28;20048;-79
2022/09/28 05:02:52;;;;;;;11.15;6.07;;;6.50;99.90;;;;;;5110056;28;20179;-76
2022/09/28 05:05:18;;;;;;;8.32;6.18;;;6.50;99.90;;;;;;5111304;28;20452;-80
2022/09/28 05:07:44;;;;;;;7.40;6.13;;;6.50;99.90;;;;;;5110999;28;20039;-78
2022/09/28 05:10:10;;;;;;;12.43;7.43;;;6.50;99.90;;;;;;5110462;28;20051;-78
2022/09/28 05:12:36;;;;;;;9.38;6.85;;;6.50;99.90;;;;;;5144281;27;20406;-84
2022/09/28 05:15:02;;;;;;;10.05;6.60;;;6.50;99.90;;;;;;5110831;28;20044;-77
2022/09/28 05:17:27;;;;;;;12.48;7.30;;;6.50;99.90;;;;;;5110959;28;20039;-78
2022/09/28 05:19:53;;;;;;;11.98;7.95;;;6.50;99.90;;;;;;5110895;28;20039;-77
2022/09/28 05:22:18;;;;;;;10.52;6.80;;;6.50;99.90;;;;;;5110817;28;20052;-77
2022/09/28 05:24:45;;;;;;;12.85;8.60;;;6.50;99.90;;;;;;5110953;28;20040;-78
2022/09/28 05:27:11;;;;;;;9.75;7.40;;;6.60;99.90;;;;;;5110662;28;20058;-78
2022/09/28 05:29:36;;;;;;;9.35;7.18;;;6.60;99.90;;;;;;5110732;28;20063;-83
2022/09/28 05:32:02;;;;;;;10.60;7.00;;;6.60;99.90;;;;;;5110275;28;20054;-78
2022/09/28 05:34:28;;;;;;;9.60;7.38;;;6.60;99.90;;;;;;5110802;28;20085;-80
2022/09/28 05:36:54;;;;;;;11.40;8.10;;;6.60;99.90;;;;;;5110594;28;20469;-82
2022/09/28 05:39:19;;;;;;;11.07;8.50;;;6.60;99.90;;;;;;5110092;28;20047;-79
2022/09/28 05:41:45;;;;;;;10.15;7.57;;;6.60;99.90;;;;;;5092498;28;20047;-77
2022/09/28 05:44:10;;;;;;;10.85;8.07;;;6.60;99.90;;;;;;5109588;28;20044;-78
2022/09/28 05:46:36;;;;;;;11.93;8.25;;;6.70;99.90;;;;;;5110801;28;20452;-81
2022/09/28 05:49:02;;;;;;;11.70;7.47;;;6.70;99.90;;;;;;5110519;28;20110;-80
2022/09/28 05:51:27;;;;;;;9.13;7.13;;;6.70;99.90;;;;;;5091897;28;20143;-77
2022/09/28 05:53:54;;;;;;;11.68;7.63;;;6.70;99.90;;;;;;5110819;28;20097;-81
2022/09/28 05:56:20;;;;;;;11.82;8.05;;;6.70;99.90;;;;;;5110942;28;20084;-80
2022/09/28 05:58:45;;;;;;;13.68;8.55;;;6.70;99.90;;;;;;5091878;28;20822;-79
2022/09/28 06:01:11;;;;;;;10.68;8.18;;;6.70;99.90;;;;;;5109291;28;20047;-78
2022/09/28 06:03:37;;;;;;;10.23;7.35;;;6.80;99.90;;;;;;5110256;28;20036;-84
2022/09/28 06:06:02;;;;;;;14.95;8.77;;;6.80;99.90;;;;;;5110353;28;20040;-77
2022/09/28 06:08:31;;;;;;;10.90;8.27;;;6.80;99.90;;;;;;5110566;28;20032;-78
2022/09/28 06:11:01;;;;;;;12.32;8.07;;;6.80;99.90;;;;;;5110003;28;20051;-77
2022/09/28 06:13:27;;;;;;;11.95;7.75;;;6.80;99.90;;;;;;5091708;28;20051;-78
2022/09/28 06:15:53;;;;;;;11.63;8.93;;;6.80;99.90;;;;;;5109976;28;20448;-79
2022/09/28 06:18:19;;;;;;;17.35;11.55;;;6.80;99.90;;;;;;5110244;28;20044;-78
2022/09/28 06:20:45;;;;;;;13.02;9.35;;;6.90;99.90;;;;;;5091514;28;20043;-77
2022/09/28 06:23:12;;;;;;;12.35;8.73;;;6.90;99.90;;;;;;5110011;28;20246;-81
2022/09/28 06:25:38;;;;;;;11.15;8.63;;;6.90;99.90;;;;;;5110455;28;20486;-82
2022/09/28 06:28:10;;;;;;;13.10;8.90;;;6.90;99.90;;;;;;5091666;28;20055;-77
2022/09/28 06:30:37;;;;;;;12.45;8.95;;;7.00;99.90;;;;;;5109536;28;20058;-77
2022/09/28 06:33:04;;;;;;;13.27;9.13;;;7.00;99.90;;;;;;5109759;28;20044;-74
2022/09/28 06:35:31;;;;;;;12.88;9.02;;;7.00;99.90;;;;;;5091374;28;20058;-77
2022/09/28 06:38:00;;;;;;;13.50;9.18;;;7.00;99.90;;;;;;5110671;28;20104;-75
2022/09/28 06:40:26;;;;;;;13.75;9.18;;;7.10;99.90;;;;;;5110359;28;20114;-78
2022/09/28 06:43:09;;;;;;;14.70;8.95;;;7.10;99.90;;;;;;5109882;28;20050;-80
2022/09/28 06:45:35;;;;;;;13.50;9.38;;;7.10;99.90;;;;;;5108667;28;20039;-77
2022/09/28 06:48:02;;;;;;;12.98;9.52;;;7.10;99.90;;;;;;5109680;28;20042;-80
2022/09/28 06:50:33;;;;;;;13.98;9.68;;;7.10;99.90;;;;;;5110034;28;20266;-77
2022/09/28 06:53:00;;;;;;;13.77;9.52;;;7.40;99.90;;;;;;5109287;28;20103;-76
2022/09/28 06:55:26;;;;;;;14.63;9.00;;;7.20;99.90;;;;;;5109585;28;20028;-78
2022/09/28 06:58:00;;;;;;;11.98;9.18;;;7.40;99.90;;;;;;5109900;28;20131;-75
2022/09/28 07:00:27;;;;;;;13.00;8.77;;;7.30;99.90;;;;;;5109729;28;20114;-77
2022/09/28 07:02:53;;;;;;;14.27;9.15;;;7.40;99.90;;;;;;5109724;28;20059;-75
2022/09/28 07:05:23;;;;;;;12.55;9.55;;;7.40;99.90;;;;;;5109544;28;20047;-79
2022/09/28 07:07:48;;;;;;;13.57;9.77;;;7.50;99.90;;;;;;5109946;28;20481;-81
2022/09/28 07:10:14;;;;;;;11.85;9.23;;;7.50;99.90;;;;;;5109960;28;20079;-77
2022/09/28 07:12:39;;;;;;;13.68;9.45;;;7.60;99.90;;;;;;5111402;28;20050;-79
2022/09/28 07:15:06;;;;;;;12.70;8.88;;;7.70;99.90;;;;;;5113157;28;20071;-82
2022/09/28 07:17:33;;;;;;;13.93;9.75;;;7.70;99.90;;;;;;5112756;28;20506;-78
2022/09/28 07:19:59;;;;;;;12.75;9.93;;;7.80;99.90;;;;;;5113707;28;20397;-77
2022/09/28 07:22:25;;;;;;;13.32;9.38;;;8.00;99.90;;;;;;5095007;28;20544;-75
2022/09/28 07:24:51;;;;;;;14.70;10.18;;;8.00;99.90;;;;;;5112764;28;20040;-76
2022/09/28 07:27:16;;;;;;;14.45;10.40;;;8.10;99.90;;;;;;5113170;28;20096;-80
2022/09/28 07:29:42;;;;;;;13.23;9.52;;;8.20;99.90;;;;;;5113045;28;20092;-79
2022/09/28 07:32:07;;;;;;;14.27;10.20;;;8.30;99.90;;;;;;5113256;28;20054;-78
2022/09/28 07:34:42;;;;;;;12.55;9.13;;;8.30;99.90;;;;;;5112568;28;20063;-79
2022/09/28 07:37:09;;;;;;;13.43;8.88;;;8.40;99.90;;;;;;5113157;28;20047;-74
2022/09/28 07:41:10;;;;;;;13.23;10.07;;;8.50;99.90;;;;;;5113235;28;20066;-79
2022/09/28 07:42:21;;;;;;;14.68;9.82;;;8.60;99.90;;;;;;5112828;28;20140;-76
2022/09/28 07:44:46;;;;;;;14.20;9.55;;;8.70;99.90;;;;;;5112642;28;20082;-78
2022/09/28 07:47:12;;;;;;;15.15;9.20;;;8.90;99.90;;;;;;5112631;28;20091;-75
2022/09/28 07:49:38;;;;;;;15.05;9.73;;;8.80;99.90;;;;;;5094249;28;20050;-76
2022/09/28 07:52:04;;;;;;;18.52;9.32;;;8.90;99.90;;;;;;5112859;28;20047;-78
2022/09/28 07:54:30;;;;;;;15.63;9.10;;;9.00;99.90;;;;;;5112931;28;20477;-76
2022/09/28 07:56:56;;;;;;;12.63;8.73;;;9.10;99.90;;;;;;5112465;28;20048;-78
2022/09/28 07:59:22;;;;;;;17.73;8.90;;;9.20;99.90;;;;;;5112272;28;20043;-82
2022/09/28 08:01:48;;;;;;;12.18;8.95;;;9.20;99.90;;;;;;5076721;28;20054;-74
2022/09/28 08:04:14;;;;;;;15.50;8.75;;;9.40;99.90;;;;;;5111471;28;20045;-82
2022/09/28 08:06:40;;;;;;;13.18;8.05;;;9.50;99.90;;;;;;5112461;28;20127;-83
2022/09/28 08:09:05;;;;;;;12.75;8.15;;;9.60;99.90;;;;;;5113021;28;20075;-83
2022/09/28 08:11:31;;;;;;;12.55;7.55;;;9.70;99.90;;;;;;5112324;28;20887;-75
2022/09/28 08:13:57;;;;;;;11.02;7.15;;;9.80;99.90;;;;;;5094171;28;20044;-75
2022/09/28 08:16:23;;;;;;;9.98;7.63;;;9.80;99.90;;;;;;5111710;28;20040;-75
2022/09/28 08:18:49;;;;;;;11.85;7.10;;;10.00;99.90;;;;;;5112742;28;20054;-77
2022/09/28 08:23:58;;;;;;;9.57;6.05;;;10.10;99.90;;;;;;5111185;28;20044;-83
2022/09/28 08:26:24;;;;;;;9.20;6.10;;;10.30;99.90;;;;;;5111879;28;20402;-81
2022/09/28 08:28:50;;;;;;;10.50;6.63;;;10.70;99.90;;;;;;5112127;28;20402;-79
2022/09/28 08:31:15;;;;;;;11.82;5.90;;;10.60;99.90;;;;;;5112269;28;20489;-77
2022/09/28 08:33:41;;;;;;;7.28;4.90;;;10.80;99.90;;;;;;5112420;28;20058;-85
2022/09/28 08:36:09;;;;;;;5.38;4.25;;;11.00;99.90;;;;;;5111085;28;20036;-78
2022/09/28 08:38:34;;;;;;;21.05;5.13;;;11.10;99.90;;;;;;5112116;28;20100;-83
2022/09/28 08:41:08;;;;;;;8.93;4.85;;;11.50;99.90;;;;;;5112081;28;20044;-81
2022/09/28 08:43:48;;;;;;;6.40;4.40;;;11.60;99.90;;;;;;5111144;28;20036;-75
2022/09/28 08:46:17;;;;;;;7.72;4.60;;;11.80;99.90;;;;;;5111857;28;20043;-75
2022/09/28 08:49:13;;;;;;;8.43;3.30;;;12.10;99.90;;;;;;5112058;28;20490;-79
2022/09/28 08:51:49;;;;;;;6.05;3.40;;;12.40;99.90;;;;;;5109824;28;20063;-78
2022/09/28 08:54:36;;;;;;;7.82;3.97;;;12.70;99.90;;;;;;5112231;28;20044;-80
2022/09/28 08:57:16;;;;;;;8.55;3.83;;;12.80;99.90;;;;;;5112135;28;20047;-80
2022/09/28 08:59:45;;;;;;;8.25;3.55;;;13.00;99.90;;;;;;5112054;28;20051;-79
2022/09/28 09:02:21;;;;;;;4.68;2.83;;;13.30;99.90;;;;;;5111903;28;20513;-85
2022/09/28 09:04:47;;;;;;;6.20;3.00;;;13.40;99.90;;;;;;5110511;28;20138;-80
2022/09/28 09:07:13;;;;;;;5.90;3.13;;;13.60;99.90;;;;;;5111645;28;20050;-83
2022/09/28 09:09:44;;;;;;;5.38;3.13;;;13.80;99.90;;;;;;5111953;28;20059;-83
2022/09/28 09:12:10;;;;;;;4.90;2.85;;;13.90;99.90;;;;;;5111803;28;20054;-89
2022/09/28 09:14:58;;;;;;;5.20;2.40;;;14.00;99.90;;;;;;5093602;28;20043;-79
2022/09/28 09:17:23;;;;;;;4.30;1.77;;;14.30;99.90;;;;;;5091384;28;20052;-85
2022/09/28 09:20:02;;;;;;;5.22;1.77;;;14.50;99.90;;;;;;5091090;28;20059;-82
2022/09/28 09:22:37;;;;;;;4.13;2.10;;;14.60;99.90;;;;;;5090681;28;20055;-78
2022/09/28 09:25:30;;;;;;;6.55;2.40;;;14.80;99.90;;;;;;5091046;28;20123;-80
2022/09/28 09:28:16;;;;;;;3.85;1.75;;;14.80;99.90;;;;;;5110485;28;20051;-77
2022/09/28 09:31:07;;;;;;;5.80;1.90;;;14.70;99.90;;;;;;5110802;28;20051;-76
2022/09/28 09:33:58;;;;;;;4.38;1.90;;;14.50;99.90;;;;;;5110997;28;20047;-80
2022/09/28 09:36:46;;;;;;;5.07;1.85;;;14.50;99.90;;;;;;5110433;28;20035;-86
2022/09/28 09:39:46;;;;;;;3.97;1.48;;;14.50;99.90;;;;;;5110487;28;20054;-84
2022/09/28 09:42:31;;;;;;;3.88;1.02;;;14.30;99.90;;;;;;5092363;28;20055;-84
2022/09/28 09:45:08;;;;;;;2.88;0.93;;;14.20;99.90;;;;;;5111083;28;20753;-79
2022/09/28 09:47:42;;;;;;;2.47;0.95;;;14.10;99.90;;;;;;5110288;28;20034;-83
2022/09/28 09:50:11;;;;;;;3.88;1.15;;;14.30;99.90;;;;;;5110836;28;20054;-79
2022/09/28 09:52:55;;;;;;;2.88;1.30;;;14.10;99.90;;;;;;5110777;28;20052;-86
2022/09/28 09:55:35;;;;;;;2.83;1.20;;;14.00;99.90;;;;;;5110472;28;20043;-84
2022/09/28 09:58:09;;;;;;;3.58;1.05;;;14.00;99.90;;;;;;5110086;28;20056;-81
2022/09/28 10:00:42;;;;;;;2.67;0.70;;;14.00;99.90;;;;;;5110636;28;20044;-83
2022/09/28 10:03:23;;;;;;;2.42;0.70;;;14.20;99.90;;;;;;5110444;28;20036;-79
2022/09/28 10:06:02;;;;;;;3.78;1.10;;;14.50;99.90;;;;;;5110557;28;20043;-82
2022/09/28 10:08:34;;;;;;;3.17;1.63;;;14.50;99.90;;;;;;5110407;28;20047;-83
2022/09/28 10:11:12;;;;;;;3.47;1.00;;;14.50;99.90;;;;;;5110326;28;20048;-79
2022/09/28 10:13:39;;;;;;;3.65;0.90;;;14.40;99.90;;;;;;5110580;28;20040;-80
2022/09/28 10:16:06;;;;;;;1.95;0.80;;;14.40;99.90;;;;;;5110442;28;20048;-81
2022/09/28 10:18:32;;;;;;;2.92;1.02;;;14.30;99.90;;;;;;5110668;28;20051;-87
2022/09/28 10:20:57;;;;;;;1.02;0.77;;;14.20;99.90;;;;;;5110006;28;20035;-83
2022/09/28 10:23:29;;;;;;;3.33;1.20;;;14.10;99.90;;;;;;5110248;28;20047;-79
2022/09/28 10:26:27;;;;;;;3.92;0.60;;;14.10;99.90;;;;;;5110210;28;20040;-82
2022/09/28 10:28:58;;;;;;;2.83;0.63;;;14.00;99.90;;;;;;5109246;28;20520;-88
2022/09/28 10:31:40;;;;;;;3.47;0.75;;;13.90;99.90;;;;;;5109830;28;20426;-84
2022/09/28 10:34:10;;;;;;;1.50;0.70;;;13.80;99.90;;;;;;5110393;28;20047;-78
2022/09/28 10:37:04;;;;;;;3.50;0.68;;;13.80;99.90;;;;;;5110295;28;20047;-84
2022/09/28 10:39:53;;;;;;;2.50;0.52;;;13.80;99.90;;;;;;5110722;28;20043;-82
2022/09/28 10:42:25;;;;;;;5.35;0.70;;;14.20;99.90;;;;;;5109392;28;20082;-83
2022/09/28 10:45:14;;;;;;;1.95;0.60;;;14.60;99.90;;;;;;5110251;28;20039;-80
2022/09/28 10:47:43;;;;;;;3.58;0.60;;;14.90;99.90;;;;;;5112060;28;20118;-83
2022/09/28 10:50:27;;;;;;;2.60;1.23;;;15.00;99.90;;;;;;5114631;28;20059;-86
2022/09/28 10:52:53;;;;;;;0.50;0.30;;;15.00;99.90;;;;;;5113405;28;20079;-83
2022/09/28 10:55:29;;;;;;;1.10;0.30;;;15.10;99.90;;;;;;5114530;28;20553;-81
2022/09/28 10:57:55;;;;;;;1.60;0.40;;;14.90;99.90;;;;;;5112256;28;20055;-86
2022/09/28 11:00:39;;;;;;;1.98;0.30;;;15.00;99.90;;;;;;5113601;28;20035;-77
2022/09/28 11:03:14;;;;;;;2.25;0.50;;;14.70;99.90;;;;;;5111816;28;20055;-79
2022/09/28 11:05:42;;;;;;;1.05;0.50;;;14.70;99.90;;;;;;5114028;28;20036;-79
2022/09/28 11:08:20;;;;;;;2.67;0.50;;;14.80;99.90;;;;;;5113383;28;20167;-79
2022/09/28 11:10:46;;;;;;;4.35;0.50;;;14.70;99.90;;;;;;5111726;28;20089;-79
2022/09/28 11:13:12;;;;;;;2.25;0.40;;;14.60;99.90;;;;;;5113226;28;20087;-89
2022/09/28 11:15:42;;;;;;;4.28;0.73;;;14.50;99.90;;;;;;5114214;28;20057;-82
2022/09/28 11:18:31;;;;;;;1.10;0.40;;;14.70;99.90;;;;;;5113284;28;20054;-88
2022/09/28 11:21:27;;;;;;;1.25;0.32;;;14.50;99.90;;;;;;5111803;28;20058;-78
2022/09/28 11:23:56;;;;;;;3.63;0.40;;;14.50;99.90;;;;;;5010597;28;20398;-83
2022/09/28 11:26:22;;;;;;;3.03;0.40;;;14.50;99.90;;;;;;4994700;28;20060;-94
2022/09/28 11:28:52;;;;;;;0.55;0.22;;;14.50;99.90;;;;;;5010585;28;20049;-90
2022/09/28 11:31:25;;;;;;;1.55;0.40;;;14.40;99.90;;;;;;5025962;28;20511;-88
2022/09/28 11:33:59;;;;;;;2.95;0.32;;;14.30;99.90;;;;;;5030958;28;20065;-82
2022/09/28 11:36:25;;;;;;;;;;;14.20;99.90;;;;;;5031119;28;20060;-81
2022/09/28 11:39:01;;;;;;;3.45;0.30;;;14.20;99.90;;;;;;5029686;28;19925;-84
2022/09/28 11:41:53;;;;;;;1.38;0.40;;;14.20;99.90;;;;;;5029996;28;20064;-84
2022/09/28 11:44:45;;;;;;;1.73;0.35;;;14.10;99.90;;;;;;5013939;28;20049;-79
2022/09/28 11:47:13;;;;;;;1.90;0.45;;;14.20;99.90;;;;;;5026433;28;20160;-78
2022/09/28 11:49:51;;;;;;;1.60;0.52;;;14.60;99.90;;;;;;5030405;28;20045;-87
2022/09/28 11:52:23;;;;;;;1.55;0.55;;;14.90;99.90;;;;;;5030341;28;20073;-88
2022/09/28 11:55:00;;;;;;;1.83;0.50;;;15.10;99.90;;;;;;5030166;28;20050;-89
2022/09/28 11:57:31;;;;;;;2.55;0.50;;;15.50;99.90;;;;;;5029553;28;20053;-89
2022/09/28 12:00:09;;;;;;;3.80;0.50;;;15.70;99.90;;;;;;5047651;28;20066;-87
2022/09/28 12:02:55;;;;;;;3.47;0.63;;;16.00;99.90;;;;;;5114807;28;20139;-88
2022/09/28 12:05:32;;;;;;;1.92;0.45;;;16.30;99.90;;;;;;5095612;28;20059;-88
2022/09/28 12:08:08;;;;;;;0.50;0.25;;;16.60;99.90;;;;;;5114268;28;20097;-86
2022/09/28 12:10:42;;;;;;;1.20;0.20;;;16.30;99.90;;;;;;5114222;28;20105;-82
2022/09/28 12:13:15;;;;;;;0.25;0.10;;;16.00;99.90;;;;;;5115367;28;20058;-85
2022/09/28 12:16:02;;;;;;;0.93;0.30;;;15.80;99.90;;;;;;5115662;28;20051;-88
2022/09/28 12:19:19;;;;;;;2.63;0.20;;;15.70;99.90;;;;;;5095415;28;20055;-81
2022/09/28 12:21:51;;;;;;;0.88;0.20;;;15.70;99.90;;;;;;5031148;28;20053;-86
2022/09/28 12:24:23;;;;;;;0.55;0.17;;;15.60;99.90;;;;;;5030608;28;20049;-77
2022/09/28 12:27:10;;;;;;;0.20;0.10;;;15.70;99.90;;;;;;5046788;28;20064;-85
2022/09/28 12:30:00;;;;;;;1.48;0.30;;;15.90;99.90;;;;;;5031420;28;20103;-80
2022/09/28 12:32:38;;;;;;;0.30;0.10;;;15.80;99.90;;;;;;5029574;28;20092;-82
2022/09/28 12:35:16;;;;;;;0.35;0.28;;;15.80;99.90;;;;;;5031524;28;20049;-84
2022/09/28 12:38:09;;;;;;;0.73;0.30;;;15.80;99.90;;;;;;5015133;28;20143;-84
2022/09/28 12:40:37;;;;;;;1.63;0.20;;;15.70;99.90;;;;;;5031461;28;20511;-82
2022/09/28 12:43:18;;;;;;;1.58;0.25;;;16.00;99.90;;;;;;5016034;28;20050;-79
2022/09/28 12:46:01;;;;;;;3.17;0.50;;;16.20;99.90;;;;;;5030014;28;20053;-85
2022/09/28 12:48:39;;;;;;;3.85;0.20;;;16.10;99.90;;;;;;5030785;28;20417;-84
2022/09/28 12:51:47;;;;;;;3.13;0.55;;;15.90;99.90;;;;;;5016166;28;20064;-84
2022/09/28 12:54:43;;;;;;;0.82;0.15;;;15.60;99.90;;;;;;5029606;28;20452;-79
2022/09/28 12:57:18;;;;;;;1.25;0.28;;;15.70;99.90;;;;;;5045811;28;20134;-83
2022/09/28 13:00:04;;;;;;;0.75;0.25;;;15.70;99.90;;;;;;5107816;28;20043;-95
2022/09/28 13:02:48;;;;;;;0.40;0.17;;;15.70;99.90;;;;;;5113260;28;20482;-94
2022/09/28 13:05:20;;;;;;;1.45;0.20;;;15.50;99.90;;;;;;5114903;28;20051;-96
2022/09/28 13:08:02;;;;;;;2.25;0.70;;;15.70;99.90;;;;;;5113928;28;20043;-80
2022/09/28 13:10:38;;;;;;;4.97;0.30;;;15.80;99.90;;;;;;5114372;28;20114;-82
2022/09/28 13:13:31;;;;;;;0.80;0.30;;;16.20;99.90;;;;;;5112841;28;20490;-80
2022/09/28 13:16:00;;;;;;;2.38;0.30;;;16.10;99.90;;;;;;5113905;28;20035;-82
2022/09/28 13:18:30;;;;;;;1.75;0.40;;;16.40;99.90;;;;;;5113654;28;20042;-86
2022/09/28 13:21:13;;;;;;;1.27;0.40;;;16.70;99.90;;;;;;5095397;28;20044;-89
2022/09/28 13:23:45;;;;;;;1.42;0.30;;;16.70;99.90;;;;;;5114041;28;20040;-85